sensor_id;sensor_type;location;lat;lon;timestamp;P1;durP1;ratioP1;P2;durP2;ratioP2
7359;SDS011;3720;48.274;7.796;2023-03-01T00:00:40;33.15;;;19.20;;
7359;SDS011;3720;48.274;7.796;2023-03-01T00:03:16;26.57;;;14.03;;
7359;SDS011;3720;48.274;7.796;2023-03-01T00:05:48;33.70;;;18.60;;
7359;SDS011;3720;48.274;7.796;2023-03-01T00:08:21;32.13;;;17.53;;
7359;SDS011;3720;48.274;7.796;2023-03-01T00:11:00;30.57;;;16.77;;
7359;SDS011;3720;48.274;7.796;2023-03-01T00:13:33;31.97;;;16.80;;
7359;SDS011;3720;48.274;7.796;2023-03-01T00:16:06;37.47;;;20.27;;
7359;SDS011;3720;48.274;7.796;2023-03-01T00:18:40;38.95;;;20.35;;
7359;SDS011;3720;48.274;7.796;2023-03-01T00:21:13;36.40;;;20.20;;
7359;SDS011;3720;48.274;7.796;2023-03-01T00:23:47;33.87;;;18.57;;
7359;SDS011;3720;48.274;7.796;2023-03-01T00:26:20;29.58;;;16.77;;
7359;SDS011;3720;48.274;7.796;2023-03-01T00:28:54;29.20;;;16.00;;
7359;SDS011;3720;48.274;7.796;2023-03-01T00:31:26;28.43;;;16.30;;
7359;SDS011;3720;48.274;7.796;2023-03-01T00:34:01;28.53;;;16.87;;
7359;SDS011;3720;48.274;7.796;2023-03-01T00:36:36;30.50;;;16.33;;
7359;SDS011;3720;48.274;7.796;2023-03-01T00:39:11;26.23;;;15.60;;
7359;SDS011;3720;48.274;7.796;2023-03-01T00:44:17;26.30;;;15.23;;
7359;SDS011;3720;48.274;7.796;2023-03-01T00:46:49;29.37;;;16.43;;
7359;SDS011;3720;48.274;7.796;2023-03-01T00:49:21;28.00;;;15.90;;
7359;SDS011;3720;48.274;7.796;2023-03-01T00:51:54;27.13;;;16.52;;
7359;SDS011;3720;48.274;7.796;2023-03-01T00:54:27;30.50;;;17.80;;
7359;SDS011;3720;48.274;7.796;2023-03-01T00:56:59;30.00;;;16.77;;
7359;SDS011;3720;48.274;7.796;2023-03-01T00:59:31;29.30;;;16.20;;
7359;SDS011;3720;48.274;7.796;2023-03-01T01:02:04;31.13;;;17.07;;
7359;SDS011;3720;48.274;7.796;2023-03-01T01:04:36;28.63;;;16.50;;
7359;SDS011;3720;48.274;7.796;2023-03-01T01:07:08;27.77;;;16.60;;
7359;SDS011;3720;48.274;7.796;2023-03-01T01:09:41;28.20;;;16.50;;
7359;SDS011;3720;48.274;7.796;2023-03-01T01:12:14;34.50;;;17.93;;
7359;SDS011;3720;48.274;7.796;2023-03-01T01:14:45;31.00;;;17.33;;
7359;SDS011;3720;48.274;7.796;2023-03-01T01:17:17;30.43;;;16.53;;
7359;SDS011;3720;48.274;7.796;2023-03-01T01:19:49;28.67;;;16.00;;
7359;SDS011;3720;48.274;7.796;2023-03-01T01:22:21;29.90;;;16.30;;
7359;SDS011;3720;48.274;7.796;2023-03-01T01:24:54;29.80;;;16.50;;
7359;SDS011;3720;48.274;7.796;2023-03-01T01:27:26;29.97;;;16.40;;
7359;SDS011;3720;48.274;7.796;2023-03-01T01:29:58;29.87;;;16.07;;
7359;SDS011;3720;48.274;7.796;2023-03-01T01:32:30;30.67;;;16.57;;
7359;SDS011;3720;48.274;7.796;2023-03-01T01:35:02;28.40;;;16.07;;
7359;SDS011;3720;48.274;7.796;2023-03-01T01:37:34;30.97;;;16.70;;
7359;SDS011;3720;48.274;7.796;2023-03-01T01:40:09;32.80;;;17.73;;
7359;SDS011;3720;48.274;7.796;2023-03-01T01:42:42;32.22;;;18.63;;
7359;SDS011;3720;48.274;7.796;2023-03-01T01:45:28;31.70;;;18.30;;
7359;SDS011;3720;48.274;7.796;2023-03-01T01:48:03;33.17;;;18.67;;
7359;SDS011;3720;48.274;7.796;2023-03-01T01:50:42;33.30;;;16.90;;
7359;SDS011;3720;48.274;7.796;2023-03-01T01:53:18;35.40;;;17.93;;
7359;SDS011;3720;48.274;7.796;2023-03-01T01:55:53;31.75;;;17.50;;
7359;SDS011;3720;48.274;7.796;2023-03-01T01:58:28;34.30;;;18.17;;
7359;SDS011;3720;48.274;7.796;2023-03-01T02:01:01;33.00;;;17.50;;
7359;SDS011;3720;48.274;7.796;2023-03-01T02:03:34;32.10;;;17.40;;
7359;SDS011;3720;48.274;7.796;2023-03-01T02:06:12;34.80;;;18.10;;
7359;SDS011;3720;48.274;7.796;2023-03-01T02:08:52;33.17;;;17.50;;
7359;SDS011;3720;48.274;7.796;2023-03-01T02:11:31;35.83;;;18.80;;
7359;SDS011;3720;48.274;7.796;2023-03-01T02:14:04;32.40;;;17.37;;
7359;SDS011;3720;48.274;7.796;2023-03-01T02:16:36;31.10;;;17.50;;
7359;SDS011;3720;48.274;7.796;2023-03-01T02:19:08;33.83;;;17.00;;
7359;SDS011;3720;48.274;7.796;2023-03-01T02:21:45;31.15;;;17.20;;
7359;SDS011;3720;48.274;7.796;2023-03-01T02:24:23;33.63;;;18.03;;
7359;SDS011;3720;48.274;7.796;2023-03-01T02:27:04;29.77;;;17.07;;
7359;SDS011;3720;48.274;7.796;2023-03-01T02:29:38;31.90;;;17.00;;
7359;SDS011;3720;48.274;7.796;2023-03-01T02:32:10;32.15;;;17.65;;
7359;SDS011;3720;48.274;7.796;2023-03-01T02:34:45;31.70;;;17.07;;
7359;SDS011;3720;48.274;7.796;2023-03-01T02:37:17;32.27;;;17.53;;
7359;SDS011;3720;48.274;7.796;2023-03-01T02:39:55;31.77;;;17.10;;
7359;SDS011;3720;48.274;7.796;2023-03-01T02:42:31;32.30;;;17.30;;
7359;SDS011;3720;48.274;7.796;2023-03-01T02:47:42;32.73;;;16.97;;
7359;SDS011;3720;48.274;7.796;2023-03-01T02:50:15;31.13;;;17.27;;
7359;SDS011;3720;48.274;7.796;2023-03-01T02:53:00;32.50;;;16.97;;
7359;SDS011;3720;48.274;7.796;2023-03-01T02:55:36;33.45;;;18.13;;
7359;SDS011;3720;48.274;7.796;2023-03-01T02:58:08;34.10;;;17.40;;
7359;SDS011;3720;48.274;7.796;2023-03-01T03:00:42;31.60;;;17.17;;
7359;SDS011;3720;48.274;7.796;2023-03-01T03:03:15;32.57;;;17.53;;
7359;SDS011;3720;48.274;7.796;2023-03-01T03:05:49;30.63;;;17.23;;
7359;SDS011;3720;48.274;7.796;2023-03-01T03:08:20;32.23;;;17.97;;
7359;SDS011;3720;48.274;7.796;2023-03-01T03:10:53;31.53;;;16.97;;
7359;SDS011;3720;48.274;7.796;2023-03-01T03:13:26;34.30;;;18.33;;
7359;SDS011;3720;48.274;7.796;2023-03-01T03:16:00;34.60;;;18.17;;
7359;SDS011;3720;48.274;7.796;2023-03-01T03:18:34;34.27;;;17.57;;
7359;SDS011;3720;48.274;7.796;2023-03-01T03:21:07;34.83;;;17.50;;
7359;SDS011;3720;48.274;7.796;2023-03-01T03:23:40;34.80;;;18.47;;
7359;SDS011;3720;48.274;7.796;2023-03-01T03:26:12;32.23;;;17.27;;
7359;SDS011;3720;48.274;7.796;2023-03-01T03:28:45;32.03;;;17.20;;
7359;SDS011;3720;48.274;7.796;2023-03-01T03:31:18;32.80;;;17.90;;
7359;SDS011;3720;48.274;7.796;2023-03-01T03:33:50;32.93;;;18.23;;
7359;SDS011;3720;48.274;7.796;2023-03-01T03:36:22;32.00;;;17.43;;
7359;SDS011;3720;48.274;7.796;2023-03-01T03:38:55;33.50;;;18.60;;
7359;SDS011;3720;48.274;7.796;2023-03-01T03:41:27;36.17;;;17.83;;
7359;SDS011;3720;48.274;7.796;2023-03-01T03:43:59;30.03;;;16.87;;
7359;SDS011;3720;48.274;7.796;2023-03-01T03:46:32;32.20;;;17.07;;
7359;SDS011;3720;48.274;7.796;2023-03-01T03:49:04;34.43;;;17.47;;
7359;SDS011;3720;48.274;7.796;2023-03-01T03:51:36;32.57;;;17.37;;
7359;SDS011;3720;48.274;7.796;2023-03-01T03:54:08;28.67;;;16.63;;
7359;SDS011;3720;48.274;7.796;2023-03-01T03:56:40;30.93;;;16.90;;
7359;SDS011;3720;48.274;7.796;2023-03-01T03:59:14;34.07;;;17.87;;
7359;SDS011;3720;48.274;7.796;2023-03-01T04:01:47;37.00;;;18.77;;
7359;SDS011;3720;48.274;7.796;2023-03-01T04:04:19;34.13;;;17.67;;
7359;SDS011;3720;48.274;7.796;2023-03-01T04:06:50;31.73;;;17.37;;
7359;SDS011;3720;48.274;7.796;2023-03-01T04:09:22;32.00;;;17.67;;
7359;SDS011;3720;48.274;7.796;2023-03-01T04:11:54;33.80;;;17.90;;
7359;SDS011;3720;48.274;7.796;2023-03-01T04:14:26;34.33;;;18.40;;
7359;SDS011;3720;48.274;7.796;2023-03-01T04:17:00;34.40;;;18.10;;
7359;SDS011;3720;48.274;7.796;2023-03-01T04:19:34;31.92;;;17.55;;
7359;SDS011;3720;48.274;7.796;2023-03-01T04:22:06;34.07;;;17.60;;
7359;SDS011;3720;48.274;7.796;2023-03-01T04:24:39;32.73;;;17.43;;
7359;SDS011;3720;48.274;7.796;2023-03-01T04:27:11;32.47;;;17.03;;
7359;SDS011;3720;48.274;7.796;2023-03-01T04:29:43;32.27;;;17.40;;
7359;SDS011;3720;48.274;7.796;2023-03-01T04:32:16;35.47;;;17.20;;
7359;SDS011;3720;48.274;7.796;2023-03-01T04:34:48;33.00;;;17.73;;
7359;SDS011;3720;48.274;7.796;2023-03-01T04:37:20;31.87;;;16.37;;
7359;SDS011;3720;48.274;7.796;2023-03-01T04:39:52;33.10;;;17.47;;
7359;SDS011;3720;48.274;7.796;2023-03-01T04:42:24;34.53;;;17.67;;
7359;SDS011;3720;48.274;7.796;2023-03-01T04:44:56;32.97;;;17.57;;
7359;SDS011;3720;48.274;7.796;2023-03-01T04:47:30;32.83;;;18.07;;
7359;SDS011;3720;48.274;7.796;2023-03-01T04:50:01;32.90;;;16.63;;
7359;SDS011;3720;48.274;7.796;2023-03-01T04:52:34;31.57;;;17.47;;
7359;SDS011;3720;48.274;7.796;2023-03-01T04:55:06;30.87;;;16.97;;
7359;SDS011;3720;48.274;7.796;2023-03-01T04:57:39;32.33;;;17.20;;
7359;SDS011;3720;48.274;7.796;2023-03-01T05:00:12;30.33;;;16.63;;
7359;SDS011;3720;48.274;7.796;2023-03-01T05:02:53;34.33;;;18.20;;
7359;SDS011;3720;48.274;7.796;2023-03-01T05:05:27;33.07;;;16.93;;
7359;SDS011;3720;48.274;7.796;2023-03-01T05:08:00;30.57;;;17.13;;
7359;SDS011;3720;48.274;7.796;2023-03-01T05:10:34;31.50;;;17.70;;
7359;SDS011;3720;48.274;7.796;2023-03-01T05:13:08;30.67;;;17.33;;
7359;SDS011;3720;48.274;7.796;2023-03-01T05:15:40;29.67;;;16.27;;
7359;SDS011;3720;48.274;7.796;2023-03-01T05:18:14;33.23;;;17.67;;
7359;SDS011;3720;48.274;7.796;2023-03-01T05:20:46;33.80;;;17.93;;
7359;SDS011;3720;48.274;7.796;2023-03-01T05:23:18;35.23;;;17.77;;
7359;SDS011;3720;48.274;7.796;2023-03-01T05:25:50;31.43;;;17.20;;
7359;SDS011;3720;48.274;7.796;2023-03-01T05:28:22;32.33;;;16.80;;
7359;SDS011;3720;48.274;7.796;2023-03-01T05:30:54;33.67;;;17.57;;
7359;SDS011;3720;48.274;7.796;2023-03-01T05:33:28;33.60;;;17.67;;
7359;SDS011;3720;48.274;7.796;2023-03-01T05:35:59;30.93;;;17.37;;
7359;SDS011;3720;48.274;7.796;2023-03-01T05:38:31;30.30;;;16.43;;
7359;SDS011;3720;48.274;7.796;2023-03-01T05:41:03;30.93;;;16.90;;
7359;SDS011;3720;48.274;7.796;2023-03-01T05:43:36;35.10;;;18.43;;
7359;SDS011;3720;48.274;7.796;2023-03-01T05:46:09;31.73;;;17.60;;
7359;SDS011;3720;48.274;7.796;2023-03-01T05:48:43;31.77;;;17.30;;
7359;SDS011;3720;48.274;7.796;2023-03-01T05:51:15;31.17;;;16.80;;
7359;SDS011;3720;48.274;7.796;2023-03-01T05:53:49;31.13;;;16.70;;
7359;SDS011;3720;48.274;7.796;2023-03-01T05:56:21;33.80;;;16.83;;
7359;SDS011;3720;48.274;7.796;2023-03-01T05:58:53;31.90;;;17.17;;
7359;SDS011;3720;48.274;7.796;2023-03-01T06:01:25;30.60;;;16.07;;
7359;SDS011;3720;48.274;7.796;2023-03-01T06:03:59;32.70;;;17.13;;
7359;SDS011;3720;48.274;7.796;2023-03-01T06:06:33;31.47;;;17.03;;
7359;SDS011;3720;48.274;7.796;2023-03-01T06:09:07;30.33;;;16.80;;
7359;SDS011;3720;48.274;7.796;2023-03-01T06:11:39;30.83;;;16.57;;
7359;SDS011;3720;48.274;7.796;2023-03-01T06:14:11;31.27;;;16.53;;
7359;SDS011;3720;48.274;7.796;2023-03-01T06:16:44;32.63;;;17.63;;
7359;SDS011;3720;48.274;7.796;2023-03-01T06:19:17;30.80;;;17.13;;
7359;SDS011;3720;48.274;7.796;2023-03-01T06:21:50;32.57;;;17.70;;
7359;SDS011;3720;48.274;7.796;2023-03-01T06:24:21;34.90;;;18.83;;
7359;SDS011;3720;48.274;7.796;2023-03-01T06:26:53;33.67;;;18.20;;
7359;SDS011;3720;48.274;7.796;2023-03-01T06:29:25;32.50;;;18.35;;
7359;SDS011;3720;48.274;7.796;2023-03-01T06:31:57;32.13;;;18.10;;
7359;SDS011;3720;48.274;7.796;2023-03-01T06:34:31;31.23;;;17.88;;
7359;SDS011;3720;48.274;7.796;2023-03-01T06:37:03;29.50;;;16.88;;
7359;SDS011;3720;48.274;7.796;2023-03-01T06:39:35;29.50;;;16.40;;
7359;SDS011;3720;48.274;7.796;2023-03-01T06:42:07;32.17;;;17.08;;
7359;SDS011;3720;48.274;7.796;2023-03-01T06:44:40;29.30;;;16.70;;
7359;SDS011;3720;48.274;7.796;2023-03-01T06:47:11;32.15;;;16.90;;
7359;SDS011;3720;48.274;7.796;2023-03-01T06:49:45;32.00;;;18.03;;
7359;SDS011;3720;48.274;7.796;2023-03-01T06:52:17;34.00;;;18.17;;
7359;SDS011;3720;48.274;7.796;2023-03-01T06:54:49;33.57;;;17.90;;
7359;SDS011;3720;48.274;7.796;2023-03-01T06:57:21;32.25;;;17.77;;
7359;SDS011;3720;48.274;7.796;2023-03-01T06:59:53;32.53;;;18.40;;
7359;SDS011;3720;48.274;7.796;2023-03-01T07:02:25;31.17;;;17.75;;
7359;SDS011;3720;48.274;7.796;2023-03-01T07:04:59;36.83;;;19.13;;
7359;SDS011;3720;48.274;7.796;2023-03-01T07:07:31;30.80;;;16.70;;
7359;SDS011;3720;48.274;7.796;2023-03-01T07:10:03;30.85;;;17.25;;
7359;SDS011;3720;48.274;7.796;2023-03-01T07:12:36;32.63;;;18.17;;
7359;SDS011;3720;48.274;7.796;2023-03-01T07:15:08;34.70;;;18.90;;
7359;SDS011;3720;48.274;7.796;2023-03-01T07:17:41;32.10;;;17.65;;
7359;SDS011;3720;48.274;7.796;2023-03-01T07:20:16;33.03;;;17.73;;
7359;SDS011;3720;48.274;7.796;2023-03-01T07:22:48;33.65;;;18.85;;
7359;SDS011;3720;48.274;7.796;2023-03-01T07:25:20;33.72;;;18.00;;
7359;SDS011;3720;48.274;7.796;2023-03-01T07:27:52;33.25;;;17.73;;
7359;SDS011;3720;48.274;7.796;2023-03-01T07:30:25;32.55;;;17.65;;
7359;SDS011;3720;48.274;7.796;2023-03-01T07:32:58;31.63;;;17.20;;
7359;SDS011;3720;48.274;7.796;2023-03-01T07:35:31;34.50;;;17.63;;
7359;SDS011;3720;48.274;7.796;2023-03-01T07:38:03;34.60;;;17.67;;
7359;SDS011;3720;48.274;7.796;2023-03-01T07:40:35;34.35;;;18.48;;
7359;SDS011;3720;48.274;7.796;2023-03-01T07:43:07;32.65;;;18.17;;
7359;SDS011;3720;48.274;7.796;2023-03-01T07:45:39;34.72;;;18.50;;
7359;SDS011;3720;48.274;7.796;2023-03-01T07:48:11;32.65;;;18.10;;
7359;SDS011;3720;48.274;7.796;2023-03-01T07:50:44;37.55;;;18.30;;
7359;SDS011;3720;48.274;7.796;2023-03-01T07:53:16;35.08;;;19.08;;
7359;SDS011;3720;48.274;7.796;2023-03-01T07:55:48;36.25;;;19.17;;
7359;SDS011;3720;48.274;7.796;2023-03-01T07:58:20;36.00;;;18.15;;
7359;SDS011;3720;48.274;7.796;2023-03-01T08:00:52;38.50;;;20.88;;
7359;SDS011;3720;48.274;7.796;2023-03-01T08:03:23;39.28;;;20.20;;
7359;SDS011;3720;48.274;7.796;2023-03-01T08:05:58;33.00;;;18.58;;
7359;SDS011;3720;48.274;7.796;2023-03-01T08:08:30;37.37;;;19.97;;
7359;SDS011;3720;48.274;7.796;2023-03-01T08:11:04;36.30;;;19.30;;
7359;SDS011;3720;48.274;7.796;2023-03-01T08:13:37;33.45;;;18.85;;
7359;SDS011;3720;48.274;7.796;2023-03-01T08:16:11;41.30;;;20.27;;
7359;SDS011;3720;48.274;7.796;2023-03-01T08:18:44;36.92;;;19.58;;
7359;SDS011;3720;48.274;7.796;2023-03-01T08:21:18;35.03;;;18.45;;
7359;SDS011;3720;48.274;7.796;2023-03-01T08:23:50;38.60;;;19.95;;
7359;SDS011;3720;48.274;7.796;2023-03-01T08:26:22;40.25;;;20.02;;
7359;SDS011;3720;48.274;7.796;2023-03-01T08:28:54;36.45;;;20.33;;
7359;SDS011;3720;48.274;7.796;2023-03-01T08:31:26;37.63;;;19.50;;
7359;SDS011;3720;48.274;7.796;2023-03-01T08:34:00;36.92;;;18.90;;
7359;SDS011;3720;48.274;7.796;2023-03-01T08:36:36;38.92;;;20.13;;
7359;SDS011;3720;48.274;7.796;2023-03-01T08:39:10;40.67;;;20.63;;
7359;SDS011;3720;48.274;7.796;2023-03-01T08:41:44;34.80;;;19.63;;
7359;SDS011;3720;48.274;7.796;2023-03-01T08:44:17;32.92;;;18.50;;
7359;SDS011;3720;48.274;7.796;2023-03-01T08:46:50;33.40;;;19.13;;
7359;SDS011;3720;48.274;7.796;2023-03-01T08:49:23;40.97;;;21.05;;
7359;SDS011;3720;48.274;7.796;2023-03-01T08:51:56;41.40;;;21.67;;
7359;SDS011;3720;48.274;7.796;2023-03-01T08:54:28;37.80;;;20.10;;
7359;SDS011;3720;48.274;7.796;2023-03-01T08:57:01;34.05;;;19.05;;
7359;SDS011;3720;48.274;7.796;2023-03-01T08:59:33;36.47;;;19.48;;
7359;SDS011;3720;48.274;7.796;2023-03-01T09:02:10;35.03;;;19.80;;
7359;SDS011;3720;48.274;7.796;2023-03-01T09:04:44;38.38;;;19.60;;
7359;SDS011;3720;48.274;7.796;2023-03-01T09:07:17;33.72;;;19.27;;
7359;SDS011;3720;48.274;7.796;2023-03-01T09:09:49;36.85;;;20.23;;
7359;SDS011;3720;48.274;7.796;2023-03-01T09:12:24;35.90;;;18.83;;
7359;SDS011;3720;48.274;7.796;2023-03-01T09:14:56;38.28;;;19.77;;
7359;SDS011;3720;48.274;7.796;2023-03-01T09:17:28;40.58;;;20.40;;
7359;SDS011;3720;48.274;7.796;2023-03-01T09:20:00;37.17;;;19.80;;
7359;SDS011;3720;48.274;7.796;2023-03-01T09:22:34;35.55;;;19.67;;
7359;SDS011;3720;48.274;7.796;2023-03-01T09:25:06;38.35;;;19.52;;
7359;SDS011;3720;48.274;7.796;2023-03-01T09:27:38;34.20;;;18.75;;
7359;SDS011;3720;48.274;7.796;2023-03-01T09:30:10;36.35;;;19.92;;
7359;SDS011;3720;48.274;7.796;2023-03-01T09:32:43;35.45;;;19.75;;
7359;SDS011;3720;48.274;7.796;2023-03-01T09:35:15;37.92;;;21.00;;
7359;SDS011;3720;48.274;7.796;2023-03-01T09:37:49;35.40;;;20.25;;
7359;SDS011;3720;48.274;7.796;2023-03-01T09:40:21;36.25;;;19.90;;
7359;SDS011;3720;48.274;7.796;2023-03-01T09:42:59;37.22;;;19.98;;
7359;SDS011;3720;48.274;7.796;2023-03-01T09:45:38;36.45;;;20.60;;
7359;SDS011;3720;48.274;7.796;2023-03-01T09:48:13;39.30;;;21.35;;
7359;SDS011;3720;48.274;7.796;2023-03-01T09:50:47;44.28;;;24.33;;
7359;SDS011;3720;48.274;7.796;2023-03-01T09:53:31;51.65;;;27.30;;
7359;SDS011;3720;48.274;7.796;2023-03-01T09:56:05;41.28;;;22.55;;
7359;SDS011;3720;48.274;7.796;2023-03-01T09:58:47;37.42;;;20.80;;
7359;SDS011;3720;48.274;7.796;2023-03-01T10:01:29;42.33;;;23.35;;
7359;SDS011;3720;48.274;7.796;2023-03-01T10:04:11;39.03;;;21.95;;
7359;SDS011;3720;48.274;7.796;2023-03-01T10:06:57;36.33;;;21.05;;
7359;SDS011;3720;48.274;7.796;2023-03-01T10:09:39;35.33;;;20.30;;
7359;SDS011;3720;48.274;7.796;2023-03-01T10:12:14;37.22;;;21.10;;
7359;SDS011;3720;48.274;7.796;2023-03-01T10:14:51;36.38;;;21.13;;
7359;SDS011;3720;48.274;7.796;2023-03-01T10:17:30;37.55;;;20.88;;
7359;SDS011;3720;48.274;7.796;2023-03-01T10:20:15;35.72;;;20.42;;
7359;SDS011;3720;48.274;7.796;2023-03-01T10:22:50;39.08;;;21.08;;
7359;SDS011;3720;48.274;7.796;2023-03-01T10:25:31;34.58;;;20.30;;
7359;SDS011;3720;48.274;7.796;2023-03-01T10:28:16;34.38;;;20.85;;
7359;SDS011;3720;48.274;7.796;2023-03-01T10:30:49;36.08;;;20.15;;
7359;SDS011;3720;48.274;7.796;2023-03-01T10:33:23;35.65;;;20.55;;
7359;SDS011;3720;48.274;7.796;2023-03-01T10:35:57;35.70;;;20.23;;
7359;SDS011;3720;48.274;7.796;2023-03-01T10:38:30;31.60;;;20.33;;
7359;SDS011;3720;48.274;7.796;2023-03-01T10:41:19;31.67;;;19.35;;
7359;SDS011;3720;48.274;7.796;2023-03-01T10:43:54;33.00;;;20.10;;
7359;SDS011;3720;48.274;7.796;2023-03-01T10:46:28;33.03;;;19.70;;
7359;SDS011;3720;48.274;7.796;2023-03-01T10:49:11;30.35;;;18.75;;
7359;SDS011;3720;48.274;7.796;2023-03-01T10:51:46;29.00;;;18.05;;
7359;SDS011;3720;48.274;7.796;2023-03-01T10:54:21;31.23;;;19.42;;
7359;SDS011;3720;48.274;7.796;2023-03-01T10:56:57;29.50;;;18.48;;
7359;SDS011;3720;48.274;7.796;2023-03-01T10:59:32;29.40;;;18.30;;
7359;SDS011;3720;48.274;7.796;2023-03-01T11:02:14;28.23;;;17.98;;
7359;SDS011;3720;48.274;7.796;2023-03-01T11:04:56;30.73;;;18.45;;
7359;SDS011;3720;48.274;7.796;2023-03-01T11:07:29;29.38;;;19.33;;
7359;SDS011;3720;48.274;7.796;2023-03-01T11:10:07;28.15;;;18.40;;
7359;SDS011;3720;48.274;7.796;2023-03-01T11:12:45;27.15;;;18.42;;
7359;SDS011;3720;48.274;7.796;2023-03-01T11:15:21;28.10;;;18.38;;
7359;SDS011;3720;48.274;7.796;2023-03-01T11:17:56;30.40;;;18.23;;
7359;SDS011;3720;48.274;7.796;2023-03-01T11:20:29;26.38;;;17.92;;
7359;SDS011;3720;48.274;7.796;2023-03-01T11:23:04;27.58;;;17.80;;
7359;SDS011;3720;48.274;7.796;2023-03-01T11:25:43;27.27;;;17.80;;
7359;SDS011;3720;48.274;7.796;2023-03-01T11:28:20;23.10;;;16.73;;
7359;SDS011;3720;48.274;7.796;2023-03-01T11:30:54;30.40;;;18.50;;
7359;SDS011;3720;48.274;7.796;2023-03-01T11:33:33;26.20;;;17.35;;
7359;SDS011;3720;48.274;7.796;2023-03-01T11:36:12;27.30;;;18.27;;
7359;SDS011;3720;48.274;7.796;2023-03-01T11:38:50;26.80;;;17.77;;
7359;SDS011;3720;48.274;7.796;2023-03-01T11:41:25;25.48;;;17.02;;
7359;SDS011;3720;48.274;7.796;2023-03-01T11:44:01;23.65;;;16.77;;
7359;SDS011;3720;48.274;7.796;2023-03-01T11:46:51;25.65;;;18.48;;
7359;SDS011;3720;48.274;7.796;2023-03-01T11:49:49;27.00;;;18.70;;
7359;SDS011;3720;48.274;7.796;2023-03-01T11:52:36;25.15;;;17.42;;
7359;SDS011;3720;48.274;7.796;2023-03-01T11:55:25;24.15;;;17.23;;
7359;SDS011;3720;48.274;7.796;2023-03-01T11:58:11;27.92;;;18.85;;
7359;SDS011;3720;48.274;7.796;2023-03-01T12:01:01;26.08;;;18.75;;
7359;SDS011;3720;48.274;7.796;2023-03-01T12:03:44;29.92;;;18.88;;
7359;SDS011;3720;48.274;7.796;2023-03-01T12:06:32;25.40;;;17.45;;
7359;SDS011;3720;48.274;7.796;2023-03-01T12:09:17;29.05;;;18.17;;
7359;SDS011;3720;48.274;7.796;2023-03-01T12:12:06;26.50;;;18.45;;
7359;SDS011;3720;48.274;7.796;2023-03-01T12:14:59;27.95;;;18.38;;
7359;SDS011;3720;48.274;7.796;2023-03-01T12:17:58;23.50;;;17.40;;
7359;SDS011;3720;48.274;7.796;2023-03-01T12:20:40;28.58;;;18.77;;
7359;SDS011;3720;48.274;7.796;2023-03-01T12:23:21;23.63;;;17.83;;
7359;SDS011;3720;48.274;7.796;2023-03-01T12:26:02;29.45;;;20.65;;
7359;SDS011;3720;48.274;7.796;2023-03-01T12:28:48;24.25;;;17.92;;
7359;SDS011;3720;48.274;7.796;2023-03-01T12:31:35;29.25;;;19.25;;
7359;SDS011;3720;48.274;7.796;2023-03-01T12:34:32;28.08;;;18.67;;
7359;SDS011;3720;48.274;7.796;2023-03-01T12:37:25;26.67;;;19.55;;
7359;SDS011;3720;48.274;7.796;2023-03-01T12:40:13;28.17;;;20.17;;
7359;SDS011;3720;48.274;7.796;2023-03-01T12:43:01;25.23;;;18.48;;
7359;SDS011;3720;48.274;7.796;2023-03-01T12:45:48;28.95;;;19.88;;
7359;SDS011;3720;48.274;7.796;2023-03-01T12:48:36;29.10;;;20.15;;
7359;SDS011;3720;48.274;7.796;2023-03-01T12:51:16;30.55;;;20.70;;
7359;SDS011;3720;48.274;7.796;2023-03-01T12:53:53;26.48;;;19.48;;
7359;SDS011;3720;48.274;7.796;2023-03-01T12:56:27;30.55;;;21.20;;
7359;SDS011;3720;48.274;7.796;2023-03-01T12:59:02;25.58;;;18.77;;
7359;SDS011;3720;48.274;7.796;2023-03-01T13:01:45;30.15;;;20.50;;
7359;SDS011;3720;48.274;7.796;2023-03-01T13:04:27;30.77;;;20.27;;
7359;SDS011;3720;48.274;7.796;2023-03-01T13:07:18;27.40;;;20.17;;
7359;SDS011;3720;48.274;7.796;2023-03-01T13:10:05;28.52;;;19.73;;
7359;SDS011;3720;48.274;7.796;2023-03-01T13:12:52;27.20;;;19.58;;
7359;SDS011;3720;48.274;7.796;2023-03-01T13:15:33;29.38;;;20.60;;
7359;SDS011;3720;48.274;7.796;2023-03-01T13:21:01;29.35;;;20.33;;
7359;SDS011;3720;48.274;7.796;2023-03-01T13:23:37;27.63;;;20.00;;
7359;SDS011;3720;48.274;7.796;2023-03-01T13:26:11;28.67;;;20.40;;
7359;SDS011;3720;48.274;7.796;2023-03-01T13:28:48;28.17;;;20.85;;
7359;SDS011;3720;48.274;7.796;2023-03-01T13:37:35;25.77;;;19.77;;
7359;SDS011;3720;48.274;7.796;2023-03-01T13:43:30;37.30;;;25.25;;
7359;SDS011;3720;48.274;7.796;2023-03-01T13:46:07;33.15;;;22.90;;
7359;SDS011;3720;48.274;7.796;2023-03-01T13:48:42;29.17;;;20.98;;
7359;SDS011;3720;48.274;7.796;2023-03-01T13:51:19;38.65;;;26.17;;
7359;SDS011;3720;48.274;7.796;2023-03-01T13:53:54;32.85;;;22.67;;
7359;SDS011;3720;48.274;7.796;2023-03-01T13:56:33;25.80;;;19.20;;
7359;SDS011;3720;48.274;7.796;2023-03-01T13:59:14;31.23;;;20.10;;
7359;SDS011;3720;48.274;7.796;2023-03-01T14:01:51;27.38;;;20.00;;
7359;SDS011;3720;48.274;7.796;2023-03-01T14:04:25;29.02;;;20.05;;
7359;SDS011;3720;48.274;7.796;2023-03-01T14:07:11;30.42;;;21.88;;
7359;SDS011;3720;48.274;7.796;2023-03-01T14:09:45;27.60;;;20.08;;
7359;SDS011;3720;48.274;7.796;2023-03-01T14:12:25;31.80;;;20.27;;
7359;SDS011;3720;48.274;7.796;2023-03-01T14:15:13;29.60;;;20.55;;
7359;SDS011;3720;48.274;7.796;2023-03-01T14:17:55;27.70;;;20.23;;
7359;SDS011;3720;48.274;7.796;2023-03-01T14:20:37;29.30;;;20.27;;
7359;SDS011;3720;48.274;7.796;2023-03-01T14:23:12;30.65;;;21.38;;
7359;SDS011;3720;48.274;7.796;2023-03-01T14:25:49;33.10;;;21.08;;
7359;SDS011;3720;48.274;7.796;2023-03-01T14:28:23;27.00;;;19.50;;
7359;SDS011;3720;48.274;7.796;2023-03-01T14:30:59;29.23;;;19.42;;
7359;SDS011;3720;48.274;7.796;2023-03-01T14:33:32;31.50;;;21.00;;
7359;SDS011;3720;48.274;7.796;2023-03-01T14:36:07;29.17;;;20.30;;
7359;SDS011;3720;48.274;7.796;2023-03-01T14:38:42;28.17;;;20.20;;
7359;SDS011;3720;48.274;7.796;2023-03-01T14:41:15;31.55;;;21.02;;
7359;SDS011;3720;48.274;7.796;2023-03-01T14:43:50;28.80;;;20.95;;
7359;SDS011;3720;48.274;7.796;2023-03-01T14:46:28;31.20;;;19.77;;
7359;SDS011;3720;48.274;7.796;2023-03-01T14:49:05;29.67;;;20.27;;
7359;SDS011;3720;48.274;7.796;2023-03-01T14:51:45;28.25;;;20.23;;
7359;SDS011;3720;48.274;7.796;2023-03-01T14:54:23;31.92;;;20.63;;
7359;SDS011;3720;48.274;7.796;2023-03-01T14:56:58;30.83;;;20.17;;
7359;SDS011;3720;48.274;7.796;2023-03-01T14:59:32;29.00;;;20.45;;
7359;SDS011;3720;48.274;7.796;2023-03-01T15:02:10;32.08;;;20.88;;
7359;SDS011;3720;48.274;7.796;2023-03-01T15:04:48;30.55;;;21.42;;
7359;SDS011;3720;48.274;7.796;2023-03-01T15:07:22;30.15;;;20.85;;
7359;SDS011;3720;48.274;7.796;2023-03-01T15:10:00;29.05;;;20.73;;
7359;SDS011;3720;48.274;7.796;2023-03-01T15:12:35;29.17;;;20.33;;
7359;SDS011;3720;48.274;7.796;2023-03-01T15:18:18;34.47;;;20.60;;
7359;SDS011;3720;48.274;7.796;2023-03-01T15:20:52;30.35;;;20.92;;
7359;SDS011;3720;48.274;7.796;2023-03-01T15:23:25;31.40;;;20.83;;
7359;SDS011;3720;48.274;7.796;2023-03-01T15:25:59;31.80;;;20.67;;
7359;SDS011;3720;48.274;7.796;2023-03-01T15:28:34;28.60;;;19.92;;
7359;SDS011;3720;48.274;7.796;2023-03-01T15:31:13;33.22;;;20.50;;
7359;SDS011;3720;48.274;7.796;2023-03-01T15:33:52;33.20;;;21.00;;
7359;SDS011;3720;48.274;7.796;2023-03-01T15:36:42;33.25;;;20.58;;
7359;SDS011;3720;48.274;7.796;2023-03-01T15:42:35;34.15;;;21.08;;
7359;SDS011;3720;48.274;7.796;2023-03-01T15:45:09;29.00;;;19.58;;
7359;SDS011;3720;48.274;7.796;2023-03-01T15:47:46;31.50;;;19.98;;
7359;SDS011;3720;48.274;7.796;2023-03-01T15:50:22;31.30;;;19.80;;
7359;SDS011;3720;48.274;7.796;2023-03-01T15:52:57;34.15;;;21.02;;
7359;SDS011;3720;48.274;7.796;2023-03-01T15:55:32;30.10;;;19.92;;
7359;SDS011;3720;48.274;7.796;2023-03-01T15:58:05;32.17;;;20.05;;
7359;SDS011;3720;48.274;7.796;2023-03-01T16:00:41;29.27;;;19.63;;